Time;durP1;ratioP1;P1;durP2;ratioP2;P2;SDS_P1;SDS_P2;PMS_P1;PMS_P2;Temp;Humidity;BMP_temperature;BMP_pressure;BME280_temperature;BME280_humidity;BME280_pressure;Samples;Min_cycle;Max_cycle;Signal;HPM_P1;HPM_P2
2022/09/03 00:01:32;;;;;;;0.90;0.75;;;25.20;53.60;;;;;;5065224;28;20316;-64
2022/09/03 00:04:05;;;;;;;0.82;0.80;;;25.20;53.60;;;;;;5065239;28;20021;-65
2022/09/03 00:06:47;;;;;;;1.20;0.88;;;25.20;53.60;;;;;;5065160;28;20020;-65
2022/09/03 00:09:23;;;;;;;1.40;1.13;;;25.20;53.70;;;;;;5065181;28;20025;-65
2022/09/03 00:12:20;;;;;;;2.13;0.70;;;25.20;53.60;;;;;;5065019;28;20023;-64
2022/09/03 00:15:06;;;;;;;0.70;0.70;;;25.20;53.70;;;;;;5065085;28;20021;-65
2022/09/03 00:18:06;;;;;;;0.68;0.68;;;25.20;53.60;;;;;;5064956;28;20234;-65
2022/09/03 00:20:54;;;;;;;1.13;0.80;;;25.20;53.70;;;;;;5064909;28;20213;-64
2022/09/03 00:23:26;;;;;;;0.82;0.73;;;25.20;53.70;;;;;;5064849;28;20025;-63
2022/09/03 00:26:08;;;;;;;0.85;0.73;;;25.20;53.60;;;;;;5064799;28;20308;-63
2022/09/03 00:28:51;;;;;;;0.60;0.60;;;25.20;53.60;;;;;;5065349;28;20032;-63
2022/09/03 00:31:32;;;;;;;0.68;0.60;;;25.20;53.70;;;;;;5064582;28;20335;-63
2022/09/03 00:34:10;;;;;;;1.05;0.93;;;25.10;53.60;;;;;;5064359;28;20024;-64
2022/09/03 00:36:44;;;;;;;1.23;1.00;;;25.10;53.60;;;;;;5064332;28;20084;-65
2022/09/03 00:39:19;;;;;;;0.80;0.80;;;25.20;53.70;;;;;;5064556;28;20135;-64
2022/09/03 00:42:06;;;;;;;1.60;0.77;;;25.10;53.70;;;;;;5064500;28;20028;-65
2022/09/03 00:45:05;;;;;;;1.13;1.02;;;25.20;53.80;;;;;;5064451;28;20017;-64
2022/09/03 00:47:31;;;;;;;1.63;1.08;;;25.10;53.70;;;;;;5064389;28;20025;-64
2022/09/03 00:50:06;;;;;;;1.60;0.90;;;25.20;53.70;;;;;;5064062;28;20288;-65
2022/09/03 00:52:38;;;;;;;0.75;0.70;;;25.20;53.70;;;;;;5064282;28;20035;-64
2022/09/03 00:55:24;;;;;;;2.35;0.93;;;25.10;53.70;;;;;;5064250;28;20070;-64
2022/09/03 00:58:24;;;;;;;0.80;0.80;;;25.10;53.70;;;;;;5064185;28;20024;-64
2022/09/03 01:00:51;;;;;;;1.00;0.80;;;25.10;53.80;;;;;;5064226;28;20029;-64
2022/09/03 01:03:41;;;;;;;0.98;0.88;;;25.10;53.80;;;;;;5064092;28;20035;-63
2022/09/03 01:06:06;;;;;;;0.90;0.63;;;25.10;53.80;;;;;;5064073;28;20323;-64
2022/09/03 01:09:02;;;;;;;2.92;0.90;;;25.10;53.70;;;;;;5064286;28;20025;-64
2022/09/03 01:11:44;;;;;;;1.23;0.80;;;25.10;53.80;;;;;;5064253;28;20032;-64
2022/09/03 01:14:33;;;;;;;0.93;0.75;;;25.10;53.80;;;;;;5063951;28;20017;-64
2022/09/03 01:17:35;;;;;;;0.70;0.70;;;25.10;53.90;;;;;;5063888;28;20009;-64
2022/09/03 01:20:07;;;;;;;1.10;1.02;;;25.10;53.90;;;;;;5064133;28;20021;-64
2022/09/03 01:23:00;;;;;;;1.23;0.80;;;25.10;53.80;;;;;;5063757;28;20190;-65
2022/09/03 01:26:03;;;;;;;0.80;0.80;;;25.10;53.90;;;;;;5063985;28;20017;-63
2022/09/03 01:28:51;;;;;;;0.95;0.77;;;25.10;53.90;;;;;;5044693;28;20424;-64
2022/09/03 01:31:28;;;;;;;0.90;0.90;;;25.10;53.80;;;;;;5063553;28;20020;-63
2022/09/03 01:34:40;;;;;;;1.35;0.80;;;25.10;53.90;;;;;;5063598;28;20185;-63
2022/09/03 01:37:18;;;;;;;0.90;0.75;;;25.10;53.90;;;;;;5051414;28;20056;-64
2022/09/03 01:40:00;;;;;;;0.83;0.83;;;25.00;53.90;;;;;;5063476;28;20335;-63
2022/09/03 01:42:35;;;;;;;2.45;0.80;;;25.10;53.90;;;;;;5063818;28;20020;-64
2022/09/03 01:45:07;;;;;;;1.65;0.80;;;25.00;53.90;;;;;;5063410;28;20017;-64
2022/09/03 01:48:00;;;;;;;0.82;0.82;;;25.00;53.90;;;;;;5063228;28;20021;-64
2022/09/03 01:50:47;;;;;;;1.02;0.93;;;25.00;53.90;;;;;;5062860;28;20056;-64
2022/09/03 01:53:51;;;;;;;0.68;0.68;;;25.00;53.90;;;;;;5063590;28;20018;-64
2022/09/03 01:56:35;;;;;;;2.15;0.73;;;25.00;53.90;;;;;;5063573;28;20028;-65
2022/09/03 01:59:20;;;;;;;0.98;0.55;;;25.00;53.90;;;;;;5063318;28;20021;-65
2022/09/03 02:01:55;;;;;;;0.98;0.70;;;25.00;53.90;;;;;;5063605;28;20029;-64
2022/09/03 02:04:23;;;;;;;1.30;1.13;;;25.00;53.90;;;;;;5063301;28;20343;-65
2022/09/03 02:06:51;;;;;;;1.48;0.93;;;25.00;53.90;;;;;;5063192;28;20082;-63
2022/09/03 02:09:18;;;;;;;0.70;0.70;;;25.00;53.90;;;;;;5063221;28;20312;-64
2022/09/03 02:11:49;;;;;;;1.10;1.00;;;25.00;53.90;;;;;;5063142;28;20197;-64
2022/09/03 02:14:15;;;;;;;1.15;0.90;;;25.00;53.90;;;;;;5063432;28;20143;-65
2022/09/03 02:16:43;;;;;;;0.90;0.90;;;25.00;53.90;;;;;;5063148;28;20212;-64
2022/09/03 02:19:13;;;;;;;1.33;0.80;;;25.00;53.80;;;;;;5063426;28;20017;-64
2022/09/03 02:21:49;;;;;;;0.93;0.90;;;25.00;53.80;;;;;;5063076;28;20340;-64
2022/09/03 02:24:15;;;;;;;2.92;0.70;;;25.00;53.80;;;;;;5063092;28;20025;-64
2022/09/03 02:26:41;;;;;;;0.82;0.73;;;25.00;53.90;;;;;;5063056;28;20260;-64
2022/09/03 02:29:06;;;;;;;0.90;0.80;;;25.00;54.50;;;;;;5063020;28;20028;-64
2022/09/03 02:31:32;;;;;;;0.95;0.80;;;25.00;53.90;;;;;;5062935;28;20021;-64
2022/09/03 02:33:58;;;;;;;1.63;0.80;;;25.00;53.90;;;;;;5062947;28;20305;-64
2022/09/03 02:36:32;;;;;;;0.90;0.90;;;25.00;54.00;;;;;;5062987;28;20024;-65
2022/09/03 02:38:58;;;;;;;0.80;0.80;;;25.00;53.90;;;;;;5062956;28;20304;-64
2022/09/03 02:41:26;;;;;;;0.93;0.90;;;25.00;53.90;;;;;;5063200;28;20024;-65
2022/09/03 02:44:18;;;;;;;1.05;0.82;;;25.00;54.00;;;;;;5062883;28;20020;-64
2022/09/03 02:46:52;;;;;;;0.73;0.60;;;25.00;54.00;;;;;;5062892;28;20328;-64
2022/09/03 02:49:18;;;;;;;0.93;0.80;;;25.00;53.90;;;;;;5062848;28;20220;-64
2022/09/03 02:51:44;;;;;;;1.95;1.10;;;25.00;54.10;;;;;;5062620;28;20037;-64
2022/09/03 02:54:10;;;;;;;0.95;0.95;;;25.00;53.90;;;;;;5062788;28;20028;-63
2022/09/03 02:56:36;;;;;;;6.85;1.02;;;25.00;53.90;;;;;;5062804;28;20013;-64
2022/09/03 02:59:07;;;;;;;1.35;0.70;;;25.00;54.10;;;;;;5065199;28;20040;-64
2022/09/03 03:01:33;;;;;;;0.88;0.85;;;24.90;54.00;;;;;;5066393;28;20020;-64
2022/09/03 03:03:59;;;;;;;1.17;0.70;;;25.00;54.10;;;;;;5066319;28;20020;-63
2022/09/03 03:06:25;;;;;;;0.80;0.80;;;24.90;54.00;;;;;;5065115;28;20048;-65
2022/09/03 03:08:54;;;;;;;1.15;0.90;;;24.90;54.00;;;;;;5066267;28;20080;-66
2022/09/03 03:11:24;;;;;;;0.80;0.70;;;24.90;53.90;;;;;;5066152;28;20020;-64
2022/09/03 03:13:50;;;;;;;0.63;0.63;;;24.90;54.10;;;;;;5066186;28;20123;-65
2022/09/03 03:16:16;;;;;;;0.93;0.60;;;24.90;54.00;;;;;;5066398;28;20286;-65
2022/09/03 03:18:45;;;;;;;1.40;0.68;;;24.90;54.00;;;;;;5066052;28;20016;-64
2022/09/03 03:21:14;;;;;;;0.98;0.88;;;24.90;54.00;;;;;;5066008;28;20021;-64
2022/09/03 03:23:39;;;;;;;1.83;1.13;;;24.90;53.90;;;;;;5065967;28;20209;-64
2022/09/03 03:26:12;;;;;;;0.60;0.60;;;24.90;54.00;;;;;;5065906;28;20027;-63
2022/09/03 03:28:41;;;;;;;1.13;1.00;;;24.90;54.10;;;;;;5065877;28;20027;-63
2022/09/03 03:31:11;;;;;;;0.80;0.75;;;24.90;54.00;;;;;;5065766;28;20017;-64
2022/09/03 03:33:37;;;;;;;1.23;0.73;;;24.90;54.00;;;;;;5065789;28;20024;-64
2022/09/03 03:36:09;;;;;;;0.82;0.82;;;24.90;53.80;;;;;;5065736;28;20080;-64
2022/09/03 03:38:35;;;;;;;1.30;0.80;;;24.90;54.00;;;;;;5065703;28;20260;-64
2022/09/03 03:41:14;;;;;;;0.75;0.75;;;24.90;54.10;;;;;;5065620;28;20020;-64
2022/09/03 03:43:40;;;;;;;0.70;0.70;;;24.90;54.10;;;;;;5065675;28;20021;-65
2022/09/03 03:46:06;;;;;;;4.63;1.20;;;24.80;53.90;;;;;;5065529;28;20031;-65
2022/09/03 03:48:32;;;;;;;7.20;0.98;;;24.90;54.00;;;;;;5065526;28;20021;-65
2022/09/03 03:51:03;;;;;;;1.02;0.73;;;24.90;54.10;;;;;;5064178;28;20316;-64
2022/09/03 03:53:34;;;;;;;0.88;0.77;;;24.80;54.10;;;;;;5065427;28;20082;-64
2022/09/03 03:56:03;;;;;;;0.50;0.50;;;24.90;54.20;;;;;;5065414;28;20028;-65
2022/09/03 03:58:31;;;;;;;1.33;1.02;;;24.90;54.20;;;;;;5065340;28;20017;-64
2022/09/03 04:01:06;;;;;;;2.15;0.80;;;24.90;54.20;;;;;;5065271;28;20024;-65
2022/09/03 04:03:32;;;;;;;0.80;0.80;;;24.90;54.20;;;;;;5065241;28;20024;-65
2022/09/03 04:05:59;;;;;;;0.98;0.80;;;24.90;54.20;;;;;;5065792;28;20127;-65
2022/09/03 04:08:26;;;;;;;0.90;0.85;;;24.80;54.10;;;;;;5065166;28;20316;-65
2022/09/03 04:10:52;;;;;;;0.80;0.80;;;24.80;54.00;;;;;;5065004;28;20082;-66
2022/09/03 04:13:18;;;;;;;1.08;0.73;;;24.90;54.20;;;;;;5065077;28;20016;-65
2022/09/03 04:15:44;;;;;;;1.75;1.02;;;24.80;54.10;;;;;;5064988;28;20021;-64
2022/09/03 04:18:10;;;;;;;0.90;0.80;;;24.80;54.20;;;;;;5064960;28;20039;-64
2022/09/03 04:20:37;;;;;;;1.33;0.80;;;24.80;54.10;;;;;;5064922;28;20324;-65
2022/09/03 04:23:03;;;;;;;0.95;0.73;;;24.80;54.10;;;;;;5064864;28;20067;-65
2022/09/03 04:25:30;;;;;;;0.88;0.70;;;24.80;54.10;;;;;;5064841;28;20024;-64
2022/09/03 04:27:56;;;;;;;0.77;0.77;;;24.80;54.00;;;;;;5064790;28;20025;-64
2022/09/03 04:30:21;;;;;;;1.35;0.88;;;24.80;54.10;;;;;;5064648;28;20066;-64
2022/09/03 04:32:53;;;;;;;0.70;0.68;;;24.80;54.10;;;;;;5064693;28;20036;-65
2022/09/03 04:35:28;;;;;;;0.73;0.70;;;24.80;54.20;;;;;;5064617;28;20305;-66
2022/09/03 04:37:54;;;;;;;0.73;0.73;;;24.80;54.20;;;;;;5064635;28;20025;-64
2022/09/03 04:40:19;;;;;;;0.93;0.85;;;24.80;54.10;;;;;;5064541;28;20013;-64
2022/09/03 04:42:45;;;;;;;0.90;0.60;;;24.80;54.10;;;;;;5064491;28;20322;-64
2022/09/03 04:45:14;;;;;;;0.82;0.80;;;24.80;54.10;;;;;;5064472;28;20021;-64
2022/09/03 04:47:41;;;;;;;0.60;0.60;;;24.80;54.10;;;;;;5064466;28;20023;-64
2022/09/03 04:50:07;;;;;;;1.67;0.80;;;24.80;54.10;;;;;;5064080;28;20040;-65
2022/09/03 04:52:32;;;;;;;0.70;0.70;;;24.80;54.20;;;;;;5064346;28;20027;-65
2022/09/03 04:54:58;;;;;;;0.68;0.68;;;24.80;54.60;;;;;;5064254;28;20332;-65
2022/09/03 04:57:24;;;;;;;0.82;0.82;;;24.80;54.00;;;;;;5064203;28;20074;-65
2022/09/03 04:59:49;;;;;;;0.70;0.70;;;24.80;54.20;;;;;;5064172;28;20028;-64
2022/09/03 05:02:15;;;;;;;0.70;0.70;;;24.80;54.20;;;;;;5064142;28;20025;-63
2022/09/03 05:04:41;;;;;;;0.90;0.75;;;24.80;54.20;;;;;;5064084;28;20328;-65
2022/09/03 05:07:07;;;;;;;2.03;0.68;;;24.80;54.20;;;;;;5064057;28;20189;-63
2022/09/03 05:09:33;;;;;;;0.75;0.63;;;24.80;54.20;;;;;;5064002;28;20024;-66
2022/09/03 05:11:59;;;;;;;1.35;0.93;;;24.80;54.10;;;;;;5063882;28;20031;-64
2022/09/03 05:14:25;;;;;;;1.00;0.70;;;24.80;54.20;;;;;;5063986;28;20017;-65
2022/09/03 05:16:50;;;;;;;0.70;0.70;;;24.80;54.30;;;;;;5063948;28;20332;-65
2022/09/03 05:19:16;;;;;;;0.60;0.60;;;24.80;54.20;;;;;;5063865;28;20013;-64
2022/09/03 05:21:42;;;;;;;1.02;0.93;;;24.70;54.20;;;;;;5063962;28;20351;-65
2022/09/03 05:24:10;;;;;;;1.17;0.68;;;24.80;54.20;;;;;;5063749;28;20025;-65
2022/09/03 05:26:38;;;;;;;0.60;0.60;;;24.70;54.30;;;;;;5063803;28;20041;-64
2022/09/03 05:29:08;;;;;;;1.80;0.90;;;24.70;54.20;;;;;;5063715;28;20316;-63
2022/09/03 05:31:37;;;;;;;1.20;0.75;;;24.70;54.10;;;;;;5063947;28;20017;-64
2022/09/03 05:34:05;;;;;;;1.15;0.80;;;24.70;54.80;;;;;;5063627;28;20024;-64
2022/09/03 05:36:36;;;;;;;0.63;0.63;;;24.70;54.20;;;;;;5063633;28;20059;-65
2022/09/03 05:39:04;;;;;;;0.88;0.80;;;24.70;54.10;;;;;;5063604;28;20023;-64
2022/09/03 05:41:32;;;;;;;1.10;0.90;;;24.70;54.20;;;;;;5063541;28;20020;-63
2022/09/03 05:43:57;;;;;;;;;;;24.80;54.10;;;;;;5063967;28;20016;-65
2022/09/03 05:46:30;;;;;;;0.70;0.70;;;24.80;54.40;;;;;;5063507;28;19939;-63
2022/09/03 05:48:57;;;;;;;1.10;0.70;;;24.70;54.10;;;;;;5063471;28;20025;-65
2022/09/03 05:51:23;;;;;;;0.90;0.75;;;24.70;54.10;;;;;;5063199;28;20064;-64
2022/09/03 05:53:49;;;;;;;0.70;0.70;;;24.70;54.10;;;;;;5063410;28;20255;-65
2022/09/03 05:56:17;;;;;;;1.15;0.73;;;24.70;54.20;;;;;;5063382;28;20301;-64
2022/09/03 05:58:46;;;;;;;0.70;0.70;;;24.70;54.30;;;;;;5063330;28;20019;-63
2022/09/03 06:01:14;;;;;;;0.70;0.70;;;24.70;54.20;;;;;;5063323;28;20388;-64
2022/09/03 06:03:40;;;;;;;;;;;24.70;54.20;;;;;;5064016;28;20123;-64
2022/09/03 06:06:07;;;;;;;0.70;0.70;;;24.70;54.40;;;;;;5062152;28;20100;-64
2022/09/03 06:08:33;;;;;;;0.80;0.60;;;24.70;54.40;;;;;;5063295;28;20032;-65
2022/09/03 06:11:00;;;;;;;1.00;0.73;;;24.60;54.40;;;;;;5063196;28;20067;-65
2022/09/03 06:13:26;;;;;;;1.38;0.95;;;24.70;54.30;;;;;;5063251;28;20029;-64
2022/09/03 06:16:03;;;;;;;0.80;0.77;;;24.70;54.20;;;;;;5063226;28;20023;-64
2022/09/03 06:18:30;;;;;;;0.70;0.70;;;24.70;54.50;;;;;;5063197;28;20021;-63
2022/09/03 06:20:57;;;;;;;0.85;0.80;;;24.70;54.30;;;;;;5063155;28;20029;-65
2022/09/03 06:23:24;;;;;;;0.63;0.63;;;24.60;54.30;;;;;;5063189;28;20012;-64
2022/09/03 06:26:04;;;;;;;0.73;0.70;;;24.70;54.40;;;;;;5063124;28;20088;-64
2022/09/03 06:28:33;;;;;;;0.93;0.90;;;24.70;54.40;;;;;;5063126;28;20096;-65
2022/09/03 06:31:00;;;;;;;0.77;0.77;;;24.60;54.40;;;;;;5062989;28;20021;-64
2022/09/03 06:33:26;;;;;;;3.28;0.90;;;24.60;54.30;;;;;;5064628;28;20307;-63
2022/09/03 06:35:56;;;;;;;1.08;0.80;;;24.60;54.30;;;;;;5066946;28;20084;-63
2022/09/03 06:38:24;;;;;;;0.90;0.75;;;24.60;54.40;;;;;;5066949;28;20009;-65
2022/09/03 06:40:54;;;;;;;1.83;1.00;;;24.60;54.30;;;;;;5066914;28;20083;-64
2022/09/03 06:43:21;;;;;;;1.52;0.80;;;24.60;54.30;;;;;;5066816;28;20047;-65
2022/09/03 06:46:02;;;;;;;1.00;0.70;;;24.60;54.20;;;;;;5066746;28;20040;-64
2022/09/03 06:48:31;;;;;;;1.20;0.70;;;24.60;54.40;;;;;;5066740;28;20045;-63
2022/09/03 06:51:00;;;;;;;0.60;0.47;;;24.60;54.30;;;;;;5066382;28;20029;-65
2022/09/03 06:53:27;;;;;;;1.10;1.05;;;24.70;54.30;;;;;;5066615;28;20243;-64
2022/09/03 06:55:55;;;;;;;0.77;0.60;;;24.60;54.30;;;;;;5066561;28;20322;-64
2022/09/03 06:58:22;;;;;;;1.50;0.80;;;24.70;54.20;;;;;;5066725;28;20041;-64
2022/09/03 07:00:48;;;;;;;1.88;0.60;;;24.70;54.30;;;;;;5066430;28;20189;-63
2022/09/03 07:03:16;;;;;;;0.70;0.60;;;24.70;54.30;;;;;;5066420;28;20017;-64
2022/09/03 07:05:42;;;;;;;1.60;0.93;;;24.70;54.20;;;;;;5066587;28;20066;-64
2022/09/03 07:08:09;;;;;;;1.35;0.73;;;24.70;54.30;;;;;;5066288;28;20035;-64
2022/09/03 07:10:36;;;;;;;0.55;0.55;;;24.70;54.30;;;;;;5066123;28;20021;-65
2022/09/03 07:13:03;;;;;;;0.88;0.73;;;24.70;54.30;;;;;;5066194;28;20024;-65
2022/09/03 07:15:28;;;;;;;0.85;0.85;;;24.70;54.30;;;;;;5066111;28;20013;-65
2022/09/03 07:17:54;;;;;;;0.85;0.55;;;24.70;54.30;;;;;;5066072;28;20264;-64
2022/09/03 07:20:21;;;;;;;0.70;0.70;;;24.70;54.30;;;;;;5066636;28;20112;-65
2022/09/03 07:22:46;;;;;;;0.70;0.70;;;24.70;54.30;;;;;;5066055;28;20047;-65
2022/09/03 07:25:12;;;;;;;0.60;0.60;;;24.70;54.20;;;;;;5065959;28;20020;-64
2022/09/03 07:27:38;;;;;;;3.30;0.82;;;24.70;54.30;;;;;;5065928;28;20025;-64
2022/09/03 07:30:08;;;;;;;0.88;0.82;;;24.70;54.20;;;;;;5065795;28;20024;-63
2022/09/03 07:32:36;;;;;;;0.80;0.80;;;24.70;54.30;;;;;;5065842;28;20020;-64
2022/09/03 07:35:02;;;;;;;1.63;0.82;;;24.70;54.40;;;;;;5065802;28;20064;-63
2022/09/03 07:37:27;;;;;;;0.95;0.75;;;24.70;54.40;;;;;;5066021;28;20021;-63
2022/09/03 07:39:53;;;;;;;1.15;0.77;;;24.70;54.40;;;;;;5065682;28;20044;-65
2022/09/03 07:42:19;;;;;;;0.90;0.70;;;24.70;54.30;;;;;;5065683;28;20063;-64
2022/09/03 07:44:45;;;;;;;1.35;0.82;;;24.70;54.40;;;;;;5065258;28;20021;-63
2022/09/03 07:47:12;;;;;;;1.00;0.75;;;24.70;54.30;;;;;;5065584;28;20028;-65
2022/09/03 07:49:37;;;;;;;0.60;0.60;;;24.70;54.40;;;;;;5065626;28;20051;-64
2022/09/03 07:52:03;;;;;;;0.73;0.73;;;24.70;54.30;;;;;;5065449;28;20029;-64
2022/09/03 07:54:30;;;;;;;0.98;0.50;;;24.70;54.30;;;;;;5065430;28;20285;-64
2022/09/03 07:56:56;;;;;;;1.60;0.95;;;24.70;54.30;;;;;;5065617;28;20027;-63
2022/09/03 07:59:22;;;;;;;0.85;0.77;;;24.70;54.30;;;;;;5065370;28;20021;-64
2022/09/03 08:01:49;;;;;;;0.95;0.80;;;24.70;54.30;;;;;;5065266;28;20213;-63
2022/09/03 08:04:15;;;;;;;0.70;0.63;;;24.70;54.30;;;;;;5065242;28;20024;-63
2022/09/03 08:06:41;;;;;;;0.73;0.70;;;24.70;54.30;;;;;;5065218;28;20021;-64
2022/09/03 08:09:10;;;;;;;0.65;0.65;;;24.70;54.30;;;;;;5065194;28;20029;-64
2022/09/03 08:11:38;;;;;;;0.80;0.80;;;24.70;54.30;;;;;;5065084;28;20024;-63
2022/09/03 08:14:09;;;;;;;0.60;0.60;;;24.80;54.30;;;;;;5065122;28;20017;-64
2022/09/03 08:16:38;;;;;;;0.77;0.77;;;24.80;54.30;;;;;;5065274;28;20021;-64
2022/09/03 08:19:04;;;;;;;1.40;0.80;;;24.80;54.30;;;;;;5064981;28;20074;-63
2022/09/03 08:21:30;;;;;;;0.73;0.70;;;24.80;54.30;;;;;;5064930;28;20044;-63
2022/09/03 08:24:03;;;;;;;0.75;0.75;;;24.80;54.40;;;;;;5065162;28;20024;-64
2022/09/03 08:26:35;;;;;;;0.60;0.60;;;24.80;54.30;;;;;;5064923;28;20070;-65
2022/09/03 08:29:02;;;;;;;2.90;1.10;;;24.80;54.30;;;;;;5065124;28;20263;-65
2022/09/03 08:31:28;;;;;;;0.65;0.52;;;24.80;54.30;;;;;;5064719;28;20021;-63
2022/09/03 08:33:56;;;;;;;0.82;0.80;;;24.80;54.30;;;;;;5064728;28;20058;-65
2022/09/03 08:36:28;;;;;;;0.80;0.77;;;24.80;54.90;;;;;;5064673;28;20016;-64
2022/09/03 08:38:56;;;;;;;0.60;0.60;;;24.80;54.20;;;;;;5064639;28;20023;-64
2022/09/03 08:41:44;;;;;;;1.17;0.80;;;24.80;54.20;;;;;;5064563;28;20025;-64
2022/09/03 08:44:48;;;;;;;1.05;0.95;;;24.80;54.30;;;;;;5064579;28;20031;-64
2022/09/03 08:47:29;;;;;;;0.98;0.75;;;24.80;54.30;;;;;;5064761;28;20017;-64
2022/09/03 08:50:07;;;;;;;0.93;0.80;;;24.90;54.40;;;;;;5064293;28;20336;-64
2022/09/03 08:52:49;;;;;;;0.60;0.60;;;24.90;54.40;;;;;;5064402;28;20112;-62
2022/09/03 08:55:21;;;;;;;0.82;0.82;;;24.90;54.30;;;;;;5063815;28;20075;-64
2022/09/03 08:58:00;;;;;;;0.52;0.52;;;24.90;54.30;;;;;;5064176;28;20040;-65
2022/09/03 09:00:39;;;;;;;1.17;0.70;;;24.90;54.30;;;;;;5064541;28;20080;-64
2022/09/03 09:03:16;;;;;;;0.70;0.70;;;24.90;54.30;;;;;;5064208;28;20024;-64
2022/09/03 09:06:07;;;;;;;0.63;0.63;;;24.90;54.30;;;;;;5064180;28;20024;-65
2022/09/03 09:08:58;;;;;;;1.05;0.90;;;24.90;54.40;;;;;;5064056;28;20021;-64
2022/09/03 09:11:32;;;;;;;0.80;0.80;;;24.90;54.30;;;;;;5053698;28;20047;-64
2022/09/03 09:14:02;;;;;;;0.57;0.52;;;24.90;54.30;;;;;;5063978;28;20324;-64
2022/09/03 09:17:13;;;;;;;0.75;0.63;;;24.90;54.30;;;;;;5063954;28;20320;-63
2022/09/03 09:19:55;;;;;;;0.60;0.60;;;24.90;54.30;;;;;;5063543;28;20044;-65
2022/09/03 09:22:40;;;;;;;0.77;0.77;;;25.00;54.30;;;;;;5063905;28;20023;-64
2022/09/03 09:25:20;;;;;;;1.00;0.70;;;24.90;54.30;;;;;;5063820;28;20020;-64
2022/09/03 09:28:12;;;;;;;0.98;0.80;;;25.00;54.30;;;;;;5063792;28;20040;-65
2022/09/03 09:30:38;;;;;;;0.98;0.90;;;25.00;54.30;;;;;;5063676;28;20025;-64
2022/09/03 09:33:04;;;;;;;1.50;0.80;;;25.00;54.30;;;;;;5063653;28;20019;-64
2022/09/03 09:35:29;;;;;;;0.73;0.63;;;25.00;54.30;;;;;;5063644;28;20205;-64
2022/09/03 09:37:59;;;;;;;0.82;0.82;;;25.00;54.30;;;;;;5063606;28;20017;-63
2022/09/03 09:40:37;;;;;;;0.70;0.70;;;25.00;54.30;;;;;;5063554;28;20021;-64
2022/09/03 09:43:07;;;;;;;0.70;0.68;;;25.00;54.30;;;;;;5063523;28;20017;-64
2022/09/03 09:45:33;;;;;;;0.68;0.68;;;25.00;54.30;;;;;;5063527;28;20048;-64
2022/09/03 09:48:01;;;;;;;0.70;0.65;;;25.00;54.30;;;;;;5063484;28;20248;-63
2022/09/03 09:50:27;;;;;;;0.80;0.80;;;25.00;54.30;;;;;;5063176;28;20056;-63
2022/09/03 09:53:13;;;;;;;1.00;0.90;;;25.00;54.30;;;;;;5063455;28;20020;-64
2022/09/03 09:55:55;;;;;;;0.70;0.70;;;25.00;54.30;;;;;;5063433;28;20039;-65
2022/09/03 09:58:27;;;;;;;2.35;0.70;;;25.00;54.30;;;;;;5063443;28;20080;-64
2022/09/03 10:00:57;;;;;;;0.90;0.90;;;25.00;54.30;;;;;;5063380;28;20020;-64
2022/09/03 10:03:23;;;;;;;0.70;0.70;;;25.00;54.30;;;;;;5063316;28;20021;-64
2022/09/03 10:09:05;;;;;;;1.35;0.90;;;25.00;54.30;;;;;;5067491;28;20028;-65
2022/09/03 10:11:38;;;;;;;1.02;0.68;;;25.00;54.20;;;;;;5067344;28;20021;-64
2022/09/03 10:14:09;;;;;;;0.65;0.65;;;25.00;54.20;;;;;;5067431;28;20019;-64
2022/09/03 10:16:41;;;;;;;1.05;0.85;;;25.00;54.30;;;;;;5067328;28;20080;-65
2022/09/03 10:19:18;;;;;;;0.98;0.90;;;25.00;54.30;;;;;;5067316;28;20308;-66
2022/09/03 10:22:05;;;;;;;0.98;0.60;;;25.00;54.20;;;;;;5067268;28;20193;-64
2022/09/03 10:24:57;;;;;;;0.47;0.47;;;25.10;54.30;;;;;;5067196;28;20017;-63
2022/09/03 10:27:24;;;;;;;1.17;0.60;;;25.10;54.30;;;;;;5067170;28;20029;-64
2022/09/03 10:29:51;;;;;;;0.77;0.70;;;25.10;54.30;;;;;;5067111;28;20020;-65
2022/09/03 10:32:35;;;;;;;0.93;0.90;;;25.10;54.30;;;;;;5066964;28;20021;-64
2022/09/03 10:35:11;;;;;;;0.70;0.70;;;25.10;54.30;;;;;;5067051;28;20047;-64
2022/09/03 10:38:16;;;;;;;0.85;0.77;;;25.10;54.30;;;;;;5066950;28;20017;-64
2022/09/03 10:40:50;;;;;;;0.80;0.80;;;25.10;54.30;;;;;;5058608;28;20320;-64
2022/09/03 10:43:19;;;;;;;1.52;1.10;;;25.10;54.30;;;;;;5066886;28;20027;-65
2022/09/03 10:46:09;;;;;;;0.70;0.70;;;25.10;54.20;;;;;;5066768;28;20268;-65
2022/09/03 10:48:45;;;;;;;2.25;0.80;;;25.10;54.20;;;;;;5066770;28;20117;-65
2022/09/03 10:51:25;;;;;;;0.65;0.63;;;25.20;54.30;;;;;;5066462;28;20044;-64
2022/09/03 10:54:19;;;;;;;0.60;0.60;;;25.20;54.30;;;;;;5065471;28;20208;-64
2022/09/03 10:57:13;;;;;;;0.60;0.57;;;25.20;54.30;;;;;;5066579;28;20305;-65
2022/09/03 10:59:54;;;;;;;0.88;0.70;;;25.10;54.20;;;;;;5066597;28;20017;-64
2022/09/03 11:02:29;;;;;;;0.70;0.70;;;25.20;54.30;;;;;;5066481;28;20021;-64
2022/09/03 11:05:01;;;;;;;0.55;0.55;;;25.20;54.30;;;;;;5066441;28;20079;-64
2022/09/03 11:07:45;;;;;;;1.65;0.80;;;25.20;54.20;;;;;;5066389;28;20048;-65
2022/09/03 11:10:29;;;;;;;0.80;0.80;;;25.20;54.20;;;;;;5066321;28;20021;-64
2022/09/03 11:13:01;;;;;;;1.25;0.80;;;25.20;54.20;;;;;;5066277;28;20013;-65
2022/09/03 11:15:34;;;;;;;0.60;0.60;;;25.20;54.20;;;;;;5066252;28;20051;-64
2022/09/03 11:18:34;;;;;;;0.73;0.73;;;25.20;54.20;;;;;;5066165;28;20084;-65
2022/09/03 11:21:09;;;;;;;0.93;0.65;;;25.30;54.30;;;;;;5066173;28;20070;-64
2022/09/03 11:23:42;;;;;;;2.75;0.98;;;25.30;54.30;;;;;;5066130;28;20212;-64
2022/09/03 11:26:11;;;;;;;0.52;0.52;;;25.20;54.20;;;;;;5066077;28;20017;-64
2022/09/03 11:29:08;;;;;;;0.80;0.63;;;25.30;54.20;;;;;;5066011;28;20317;-64
2022/09/03 11:31:56;;;;;;;0.60;0.60;;;25.30;54.20;;;;;;5065875;28;20060;-64
2022/09/03 11:34:25;;;;;;;1.42;0.80;;;25.30;54.20;;;;;;5065923;28;20037;-64
2022/09/03 11:37:03;;;;;;;0.65;0.65;;;25.30;54.20;;;;;;5065822;28;20021;-63
2022/09/03 11:39:31;;;;;;;0.80;0.63;;;25.30;54.20;;;;;;5065857;28;20027;-64
2022/09/03 11:42:05;;;;;;;0.70;0.70;;;25.30;54.20;;;;;;5065749;28;20076;-64
2022/09/03 11:44:36;;;;;;;0.60;0.60;;;25.30;54.20;;;;;;5064556;28;20198;-63
2022/09/03 11:47:18;;;;;;;0.68;0.68;;;25.30;54.10;;;;;;5065626;28;20017;-65
2022/09/03 11:49:49;;;;;;;0.70;0.70;;;25.30;54.20;;;;;;5065431;28;20021;-64
2022/09/03 11:52:28;;;;;;;0.60;0.60;;;25.30;54.10;;;;;;5065484;28;20383;-64
2022/09/03 11:54:54;;;;;;;0.80;0.70;;;25.40;54.20;;;;;;5065516;28;20021;-64
2022/09/03 11:57:30;;;;;;;0.65;0.63;;;25.40;54.20;;;;;;5065445;28;20013;-64
2022/09/03 12:00:20;;;;;;;0.60;0.60;;;25.40;54.20;;;;;;5065735;28;20039;-65
2022/09/03 12:02:49;;;;;;;0.73;0.73;;;25.40;54.20;;;;;;5065355;28;20084;-64
2022/09/03 12:05:38;;;;;;;1.00;0.90;;;25.40;54.20;;;;;;5065306;28;20028;-64
2022/09/03 12:08:27;;;;;;;1.20;1.10;;;25.40;54.20;;;;;;5065251;28;20020;-64
2022/09/03 12:11:33;;;;;;;0.60;0.60;;;25.40;54.30;;;;;;5065160;28;20054;-63
2022/09/03 12:14:21;;;;;;;0.55;0.55;;;25.30;54.30;;;;;;5057419;28;20032;-64
2022/09/03 12:16:56;;;;;;;;;;;25.40;54.30;;;;;;5065536;28;20013;-64
2022/09/03 12:19:40;;;;;;;0.77;0.77;;;25.40;54.20;;;;;;5063924;28;19901;-64
2022/09/03 12:22:13;;;;;;;1.90;0.70;;;25.50;54.20;;;;;;5065026;28;20080;-65
2022/09/03 12:24:41;;;;;;;0.50;0.50;;;25.50;54.20;;;;;;5064947;28;20016;-65
2022/09/03 12:27:21;;;;;;;1.17;0.90;;;25.50;54.10;;;;;;5064948;28;20027;-64
2022/09/03 12:30:01;;;;;;;0.70;0.70;;;25.50;54.10;;;;;;5064580;28;20052;-63
2022/09/03 12:32:36;;;;;;;0.60;0.60;;;25.50;57.40;;;;;;5064233;28;20024;-65
2022/09/03 12:35:16;;;;;;;0.60;0.60;;;25.60;61.20;;;;;;5064787;28;20025;-64
2022/09/03 12:37:45;;;;;;;0.70;0.70;;;25.60;61.10;;;;;;5064631;28;20054;-64
2022/09/03 12:40:21;;;;;;;0.50;0.50;;;25.70;60.40;;;;;;5064648;28;20065;-66
2022/09/03 12:42:47;;;;;;;0.70;0.70;;;25.70;61.30;;;;;;5064804;28;20093;-64
2022/09/03 12:45:17;;;;;;;0.60;0.60;;;25.70;61.70;;;;;;5064538;28;20021;-64
2022/09/03 12:47:43;;;;;;;1.23;0.98;;;25.80;62.00;;;;;;5064728;28;20100;-64
2022/09/03 12:50:18;;;;;;;0.70;0.70;;;25.80;57.80;;;;;;5064408;28;20043;-65
2022/09/03 12:52:47;;;;;;;0.60;0.60;;;25.80;56.50;;;;;;5064339;28;20055;-63
2022/09/03 12:55:35;;;;;;;1.02;0.80;;;25.80;54.90;;;;;;5064301;28;20013;-63
2022/09/03 12:58:12;;;;;;;;;;;25.60;54.40;;;;;;5064731;28;20069;-66
2022/09/03 13:00:52;;;;;;;0.77;0.75;;;25.60;54.70;;;;;;5064236;28;20193;-64
2022/09/03 13:03:27;;;;;;;1.02;0.68;;;25.50;54.60;;;;;;5064464;28;20021;-64
2022/09/03 13:06:07;;;;;;;0.52;0.52;;;25.70;54.20;;;;;;5064181;28;20013;-64
2022/09/03 13:08:57;;;;;;;0.70;0.70;;;25.80;54.20;;;;;;5064112;28;20041;-64
2022/09/03 13:11:24;;;;;;;0.50;0.50;;;25.90;54.00;;;;;;5063653;28;20025;-64
2022/09/03 13:14:04;;;;;;;0.63;0.50;;;25.90;53.50;;;;;;5064061;28;20017;-63
2022/09/03 13:16:41;;;;;;;0.60;0.60;;;26.10;53.40;;;;;;5063949;28;20013;-64
2022/09/03 13:19:22;;;;;;;0.73;0.70;;;26.10;53.20;;;;;;5063981;28;20017;-62
2022/09/03 13:22:06;;;;;;;0.60;0.60;;;26.20;53.00;;;;;;5064138;28;20032;-63
2022/09/03 13:24:34;;;;;;;0.55;0.55;;;26.30;52.70;;;;;;5064116;28;20043;-63